Thunder radar more information blitzortung!


Radar de pluja more information rain snow radar


Visita la nostra xarxa de llocs de meteo:

Template documentation
and downloads

And another site



No particular awareness of the weather is required.    There are no Weather-warnings

Pagina Historial Weather Underground text

Diari Resum Setembre 14, 2017 Unitats:  Tant    Imperial   Mètric
« Previous Dia
SegĂźent Dia »
Diari Setmana Mensual Anual Personalitzada
  Maxima: Minima: Media:
Temperatura: 86.7 °F /  30.4 °C 59.2 °F /  15.1 °C 68 °F /  20 °C
Punt de rosada: 66.9 °F /  19.4 °C 52.5 °F /  11.4 °C 56.7 °F /  13.7 °C
Humitat: 83 % 52 % 68 %
Wind Speed: 8.5 mph /  13.7 km/h - 2.6 mph /  4.2 km/h
RĂ fegues de vent: 8.5 mph /  13.7 km/h - -
Vent:- - South
Pression baro: 30.1 in /  1017.8 hPa 29.9 in /  1013.8 hPa -
Precipitacions: 0 in /  0.0 mm    
Historical Graphs
 
 
Dades de taula per Setembre 14, 2017
Temps Temperatura Punt de rosada Pression baro Vent Wind Speed RĂ fegues de vent Humitat Rainfall Rate (Hourly)
00:04 68.9 °F /  20.5 °C 61.3 °F /  16.3 °C 30.1 in /  1017.8 hPa West 2.3 mph /  3.7 km/h 2.3 mph /  3.7 km/h 77 % 0 in /  0.0 mm
00:05 68.9 °F /  20.5 °C 61.3 °F /  16.3 °C 30.1 in /  1017.8 hPa SW 2.3 mph /  3.7 km/h 2.3 mph /  3.7 km/h 77 % 0 in /  0.0 mm
19:15 64.8 °F /  18.2 °C 52.7 °F /  11.5 °C 30 in /  1016.8 hPa ESE 2 mph /  3.2 km/h 2 mph /  3.2 km/h 65 % 0 in /  0.0 mm
19:25 64.6 °F /  18.1 °C 52.5 °F /  11.4 °C 30 in /  1015.8 hPa ESE 2 mph /  3.2 km/h 3 mph /  4.8 km/h 65 % 0 in /  0.0 mm
19:35 64.6 °F /  18.1 °C 53.1 °F /  11.7 °C 30 in /  1015.8 hPa Calm   2 mph /  3.2 km/h 66 % 0 in /  0.0 mm
19:45 64 °F /  17.8 °C 53.2 °F /  11.8 °C 30 in /  1015.8 hPa Calm   3 mph /  4.8 km/h 68 % 0 in /  0.0 mm
19:55 63.5 °F /  17.5 °C 53.1 °F /  11.7 °C 30 in /  1015.8 hPa SSE 2 mph /  3.2 km/h 2 mph /  3.2 km/h 69 % 0 in /  0.0 mm
20:05 63.3 °F /  17.4 °C 53.8 °F /  12.1 °C 30 in /  1015.8 hPa Calm   4 mph /  6.4 km/h 71 % 0 in /  0.0 mm
20:15 62.2 °F /  16.8 °C 53.8 °F /  12.1 °C 30 in /  1015.8 hPa South 1 mph /  1.6 km/h 1 mph /  1.6 km/h 74 % 0 in /  0.0 mm
20:25 61.5 °F /  16.4 °C 53.4 °F /  11.9 °C 30 in /  1015.8 hPa SW 1 mph /  1.6 km/h 2 mph /  3.2 km/h 75 % 0.04 in /  1.0 mm
20:35 61 °F /  16.1 °C 54.1 °F /  12.3 °C 30 in /  1015.8 hPa SSW 2 mph /  3.2 km/h 3 mph /  4.8 km/h 78 % 0.21 in /  5.3 mm
20:45 60.8 °F /  16.0 °C 54.1 °F /  12.3 °C 30 in /  1015.8 hPa NE 1 mph /  1.6 km/h 2 mph /  3.2 km/h 79 % 0.21 in /  5.3 mm
20:55 60.6 °F /  15.9 °C 54.3 °F /  12.4 °C 30 in /  1015.8 hPa NNE 2 mph /  3.2 km/h 2 mph /  3.2 km/h 80 % 0.04 in /  1.0 mm
21:05 60.6 °F /  15.9 °C 54.9 °F /  12.7 °C 30 in /  1015.8 hPa NE 1 mph /  1.6 km/h 2 mph /  3.2 km/h 81 % 0 in /  0.0 mm
21:15 60.4 °F /  15.8 °C 54.9 °F /  12.7 °C 30 in /  1015.8 hPa North 1 mph /  1.6 km/h 2 mph /  3.2 km/h 82 % 0 in /  0.0 mm
21:25 60.6 °F /  15.9 °C 55.4 °F /  13.0 °C 30 in /  1015.8 hPa NNW 1 mph /  1.6 km/h 2 mph /  3.2 km/h 83 % 0 in /  0.0 mm
21:35 60.3 °F /  15.7 °C 54.3 °F /  12.4 °C 30 in /  1015.8 hPa West 2 mph /  3.2 km/h 3 mph /  4.8 km/h 81 % 0 in /  0.0 mm
21:42 86.7 °F /  30.4 °C 66.9 °F /  19.4 °C 29.9 in /  1013.8 hPa West 1.2 mph /  1.9 km/h   52 % 0 in /  0.0 mm
21:43 86.7 °F /  30.4 °C 66.9 °F /  19.4 °C 29.9 in /  1013.8 hPa West 1.2 mph /  1.9 km/h   52 % 0 in /  0.0 mm
21:45 59.9 °F /  15.5 °C 54.3 °F /  12.4 °C 30 in /  1014.8 hPa West 2 mph /  3.2 km/h 3 mph /  4.8 km/h 82 % 0 in /  0.0 mm
21:48 86.7 °F /  30.4 °C 66.9 °F /  19.4 °C 29.9 in /  1013.8 hPa West 1.2 mph /  1.9 km/h   52 % 0 in /  0.0 mm
21:53 86.7 °F /  30.4 °C 66.9 °F /  19.4 °C 29.9 in /  1013.8 hPa West 1.2 mph /  1.9 km/h   52 % 0 in /  0.0 mm
21:55 59.5 °F /  15.3 °C 54 °F /  12.2 °C 30 in /  1015.8 hPa WNW 1 mph /  1.6 km/h 2 mph /  3.2 km/h 82 % 0 in /  0.0 mm
21:58 86.7 °F /  30.4 °C 66.9 °F /  19.4 °C 29.9 in /  1013.8 hPa West 1.2 mph /  1.9 km/h   52 % 0 in /  0.0 mm
22:03 86.7 °F /  30.4 °C 66.9 °F /  19.4 °C 29.9 in /  1013.8 hPa West 1.2 mph /  1.9 km/h   52 % 0 in /  0.0 mm
22:05 59.2 °F /  15.1 °C 54 °F /  12.2 °C 30 in /  1015.8 hPa North 2 mph /  3.2 km/h 3 mph /  4.8 km/h 83 % 0.04 in /  1.0 mm
22:10 69.3 °F /  20.7 °C 57.4 °F /  14.1 °C 30 in /  1016.8 hPa WSW 2.6 mph /  4.2 km/h 2.6 mph /  4.2 km/h 66 % 0 in /  0.0 mm
22:15 69.3 °F /  20.7 °C 57.4 °F /  14.1 °C 30 in /  1016.8 hPa SW 2.3 mph /  3.7 km/h 2.3 mph /  3.7 km/h 66 % 0 in /  0.0 mm
22:20 69.3 °F /  20.7 °C 57.4 °F /  14.1 °C 30 in /  1015.8 hPa WSW 2.3 mph /  3.7 km/h 2.3 mph /  3.7 km/h 66 % 0 in /  0.0 mm
22:25 69.3 °F /  20.7 °C 57.4 °F /  14.1 °C 30 in /  1015.8 hPa WSW 2.3 mph /  3.7 km/h 2.3 mph /  3.7 km/h 66 % 0 in /  0.0 mm
22:30 69.3 °F /  20.7 °C 57.4 °F /  14.1 °C 30 in /  1015.8 hPa WSW 2.3 mph /  3.7 km/h 2.3 mph /  3.7 km/h 66 % 0 in /  0.0 mm
22:35 69.3 °F /  20.7 °C 57.4 °F /  14.1 °C 30 in /  1015.8 hPa SW 1.6 mph /  2.6 km/h   66 % 0 in /  0.0 mm
22:40 69.3 °F /  20.7 °C 57.4 °F /  14.1 °C 30 in /  1015.8 hPa West 2 mph /  3.2 km/h   66 % 0 in /  0.0 mm
22:45 69.3 °F /  20.7 °C 57.4 °F /  14.1 °C 30 in /  1015.8 hPa South 2.3 mph /  3.7 km/h 2.3 mph /  3.7 km/h 66 % 0 in /  0.0 mm
22:50 69.3 °F /  20.7 °C 57.4 °F /  14.1 °C 30 in /  1015.8 hPa NNE 2.3 mph /  3.7 km/h 2.3 mph /  3.7 km/h 66 % 0 in /  0.0 mm
22:55 69.3 °F /  20.7 °C 57.7 °F /  14.3 °C 30 in /  1015.8 hPa ENE 2.9 mph /  4.7 km/h 2.9 mph /  4.7 km/h 67 % 0 in /  0.0 mm
23:00 69.1 °F /  20.6 °C 58.1 °F /  14.5 °C 30 in /  1015.8 hPa East 2.3 mph /  3.7 km/h 2.3 mph /  3.7 km/h 68 % 0 in /  0.0 mm
23:05 68.9 °F /  20.5 °C 57.9 °F /  14.4 °C 30 in /  1015.8 hPa SE 8.5 mph /  13.7 km/h 8.5 mph /  13.7 km/h 68 % 0 in /  0.0 mm
23:10 68 °F /  20.0 °C 56.1 °F /  13.4 °C 30 in /  1015.8 hPa East 6.9 mph /  11.1 km/h 6.9 mph /  11.1 km/h 66 % 0 in /  0.0 mm
23:15 67.6 °F /  19.8 °C 55.6 °F /  13.1 °C 30 in /  1015.8 hPa ESE 5.8 mph /  9.3 km/h 5.8 mph /  9.3 km/h 65 % 0 in /  0.0 mm
23:20 67.3 °F /  19.6 °C 54.3 °F /  12.4 °C 30 in /  1015.8 hPa ESE 6.9 mph /  11.1 km/h 6.9 mph /  11.1 km/h 63 % 0 in /  0.0 mm
23:25 66.9 °F /  19.4 °C 54 °F /  12.2 °C 30 in /  1015.8 hPa East 4.6 mph /  7.4 km/h 4.6 mph /  7.4 km/h 63 % 0 in /  0.0 mm
23:30 66.6 °F /  19.2 °C 53.1 °F /  11.7 °C 30 in /  1015.8 hPa ESE 5.8 mph /  9.3 km/h 5.8 mph /  9.3 km/h 62 % 0 in /  0.0 mm
23:35 66.4 °F /  19.1 °C 53.1 °F /  11.7 °C 30 in /  1014.8 hPa ENE 5.8 mph /  9.3 km/h 5.8 mph /  9.3 km/h 62 % 0 in /  0.0 mm
23:40 65.8 °F /  18.8 °C 52.9 °F /  11.6 °C 30 in /  1014.8 hPa ESE 6.9 mph /  11.1 km/h 6.9 mph /  11.1 km/h 63 % 0 in /  0.0 mm
23:45 65.3 °F /  18.5 °C 52.9 °F /  11.6 °C 30 in /  1014.8 hPa ESE 6.9 mph /  11.1 km/h 6.9 mph /  11.1 km/h 64 % 0 in /  0.0 mm
23:50 65.3 °F /  18.5 °C 52.9 °F /  11.6 °C 30 in /  1015.8 hPa ESE 3.5 mph /  5.6 km/h 3.5 mph /  5.6 km/h 64 % 0 in /  0.0 mm
23:55 65.1 °F /  18.4 °C 52.5 °F /  11.4 °C 30 in /  1015.8 hPa ENE 2.6 mph /  4.2 km/h 2.6 mph /  4.2 km/h 64 % 0 in /  0.0 mm
Meteo Sesrovires
Elogis d' Weather Underground - 2.75 mb

Guio original per  Jim McMurry - jmcmurry@mwt.net Adaptat per a la plantilla per  Wim van der Kuil - Leuven-Template.eu

Trobareu la nostra informacio del temps tambe a:

Weather Underground

AWEKAS